Time;durP1;ratioP1;P1;durP2;ratioP2;P2;SDS_P1;SDS_P2;PMS_P1;PMS_P2;Temp;Humidity;BMP_temperature;BMP_pressure;BME280_temperature;BME280_humidity;BME280_pressure;Samples;Min_cycle;Max_cycle;Signal;HPM_P1;HPM_P2
2022/03/11 00:02:21;;;;;;;9.65;4.30;;;;;;;19.06;31.48;101921.03;5066005;28;20353;-38
2022/03/11 00:04:48;;;;;;;5.35;3.92;;;;;;;19.04;31.70;101926.53;5063000;28;20052;-38
2022/03/11 00:07:15;;;;;;;6.10;3.88;;;;;;;19.02;31.64;101925.84;5067313;28;20079;-37
2022/03/11 00:09:42;;;;;;;6.32;4.38;;;;;;;19.01;31.21;101912.50;5066815;28;20092;-38
2022/03/11 00:12:09;;;;;;;5.75;4.10;;;;;;;18.99;31.59;101920.72;5063957;28;20044;-38
2022/03/11 00:14:36;;;;;;;6.13;3.83;;;;;;;18.98;31.18;101914.50;5064767;28;20084;-38
2022/03/11 00:17:03;;;;;;;6.13;3.80;;;;;;;18.97;31.16;101914.63;5078209;28;20123;-37
2022/03/11 00:19:30;;;;;;;9.15;4.35;;;;;;;18.95;31.29;101903.16;5069899;28;20078;-39
2022/03/11 00:21:57;;;;;;;5.60;3.92;;;;;;;18.97;31.08;101909.25;5069898;28;20232;-38
2022/03/11 00:24:24;;;;;;;8.30;4.18;;;;;;;18.95;31.41;101903.16;5067323;28;20135;-38
2022/03/11 00:26:52;;;;;;;5.45;3.78;;;;;;;18.94;31.44;101905.00;5068514;28;20155;-39
2022/03/11 00:29:18;;;;;;;5.45;4.30;;;;;;;18.91;31.12;101896.38;5071658;28;20115;-38
2022/03/11 00:31:45;;;;;;;5.32;3.75;;;;;;;18.91;31.30;101897.22;5067403;28;20163;-39
2022/03/11 00:34:12;;;;;;;9.80;3.83;;;;;;;18.89;30.99;101904.53;5069587;28;20118;-38
2022/03/11 00:36:40;;;;;;;5.57;4.03;;;;;;;18.88;31.34;101891.25;5067827;28;20124;-39
2022/03/11 00:39:06;;;;;;;5.40;4.10;;;;;;;18.86;30.83;101904.81;5071577;28;20044;-38
2022/03/11 00:41:33;;;;;;;7.60;3.72;;;;;;;18.86;30.82;101890.53;5070323;28;20131;-38
2022/03/11 00:43:59;;;;;;;7.43;4.57;;;;;;;18.85;31.20;101894.19;5070557;28;20182;-39
2022/03/11 00:46:26;;;;;;;5.95;3.70;;;;;;;18.83;31.20;101898.88;5063538;28;20040;-38
2022/03/11 00:48:53;;;;;;;7.30;3.97;;;;;;;18.80;31.24;101886.53;5065545;28;20051;-39
2022/03/11 00:51:19;;;;;;;5.95;3.75;;;;;;;18.82;30.90;101889.13;5069919;28;20147;-39
2022/03/11 00:53:46;;;;;;;7.43;3.83;;;;;;;18.81;31.31;101885.53;5068256;28;20515;-39
2022/03/11 00:56:12;;;;;;;6.25;3.78;;;;;;;18.81;31.39;101884.69;5064012;28;20052;-39
2022/03/11 00:58:39;;;;;;;7.70;4.55;;;;;;;18.80;31.53;101881.16;5066953;28;20033;-39
2022/03/11 01:01:05;;;;;;;7.43;4.10;;;;;;;18.78;30.80;101879.63;5065181;28;20075;-39
2022/03/11 01:03:32;;;;;;;8.65;3.92;;;;;;;18.78;31.11;101876.94;5066713;28;20048;-39
2022/03/11 01:05:59;;;;;;;6.88;4.25;;;;;;;18.76;31.26;101881.56;5068323;28;20131;-38
2022/03/11 01:08:25;;;;;;;6.05;4.10;;;;;;;18.74;31.04;101873.66;5069417;28;20427;-39
2022/03/11 01:10:52;;;;;;;7.60;4.47;;;;;;;18.74;30.72;101870.97;5065066;28;20140;-38
2022/03/11 01:13:19;;;;;;;7.32;4.20;;;;;;;18.73;31.11;101862.06;5065676;28;20130;-38
2022/03/11 01:15:45;;;;;;;8.90;4.30;;;;;;;18.71;30.89;101868.53;5062723;28;20394;-38
2022/03/11 01:18:12;;;;;;;6.70;4.00;;;;;;;18.71;30.62;101858.66;5065760;28;20049;-38
2022/03/11 01:20:38;;;;;;;7.38;4.40;;;;;;;18.70;31.13;101862.31;5070329;28;20519;-39
2022/03/11 01:23:05;;;;;;;6.78;4.32;;;;;;;18.69;31.26;101860.59;5068816;28;20080;-37
2022/03/11 01:25:31;;;;;;;8.70;4.78;;;;;;;18.69;30.89;101860.59;5068504;28;20120;-37
2022/03/11 01:27:58;;;;;;;6.13;3.75;;;;;;;18.68;30.89;101853.50;5064240;28;20135;-38
2022/03/11 01:30:25;;;;;;;6.38;4.10;;;;;;;18.66;31.39;101851.97;5070374;28;20037;-37
2022/03/11 01:32:51;;;;;;;6.13;3.72;;;;;;;18.63;31.37;101850.38;5063114;28;20051;-37
2022/03/11 01:35:18;;;;;;;7.28;4.50;;;;;;;18.60;30.77;101845.28;5069499;28;20040;-38
2022/03/11 01:37:44;;;;;;;6.97;4.28;;;;;;;18.61;30.74;101836.22;5062034;28;20051;-37
2022/03/11 01:40:11;;;;;;;6.30;4.43;;;;;;;18.61;30.71;101838.06;5063215;28;20045;-38
2022/03/11 01:42:39;;;;;;;8.40;4.43;;;;;;;18.61;30.49;101836.22;5065368;28;20072;-38
2022/03/11 01:45:06;;;;;;;9.88;5.43;;;;;;;18.59;31.00;101826.63;5068769;28;20041;-38
2022/03/11 01:47:33;;;;;;;7.25;4.28;;;;;;;18.58;30.45;101831.13;5066047;28;20092;-37
2022/03/11 01:49:59;;;;;;;7.75;4.82;;;;;;;18.57;30.86;101823.19;5066705;28;20389;-37
2022/03/11 01:52:26;;;;;;;6.32;4.00;;;;;;;18.54;30.71;101812.75;5067032;28;20041;-38
2022/03/11 01:54:55;;;;;;;9.65;4.70;;;;;;;18.55;31.03;101819.81;5070003;28;20093;-38
2022/03/11 01:57:21;;;;;;;6.95;4.55;;;;;;;18.55;30.82;101819.81;5065040;28;20068;-37
2022/03/11 01:59:48;;;;;;;6.93;4.45;;;;;;;18.54;30.71;101807.38;5069835;28;20075;-38
2022/03/11 02:02:15;;;;;;;8.50;4.57;;;;;;;18.51;30.55;101800.44;5063396;28;20167;-37
2022/03/11 02:04:42;;;;;;;6.43;4.47;;;;;;;18.48;31.03;101798.00;5066083;28;20048;-37
2022/03/11 02:07:11;;;;;;;6.10;3.83;;;;;;;18.46;31.21;101802.69;5065493;28;20147;-37
2022/03/11 02:09:37;;;;;;;6.43;4.50;;;;;;;18.46;30.97;101795.47;5065802;28;20044;-37
2022/03/11 02:12:04;;;;;;;10.55;4.65;;;;;;;18.44;31.13;101796.56;5065752;28;20094;-37
2022/03/11 02:14:31;;;;;;;6.65;3.97;;;;;;;18.43;30.96;101784.16;5067726;28;20050;-37
2022/03/11 02:16:57;;;;;;;6.65;3.95;;;;;;;18.42;30.80;101790.50;5068079;28;20127;-37
2022/03/11 02:19:24;;;;;;;7.25;4.45;;;;;;;18.40;31.06;101773.66;5067401;28;20048;-38
2022/03/11 02:21:53;;;;;;;6.70;4.75;;;;;;;18.41;31.00;101775.34;5066625;28;20073;-37
2022/03/11 02:24:19;;;;;;;5.65;4.10;;;;;;;18.38;31.25;101776.50;5068118;28;20422;-37
2022/03/11 02:26:46;;;;;;;5.97;4.00;;;;;;;18.37;31.04;101774.81;5060851;28;20057;-37
2022/03/11 02:29:13;;;;;;;6.43;4.22;;;;;;;18.38;30.90;101768.44;5067952;28;20132;-38
2022/03/11 02:31:39;;;;;;;6.15;4.45;;;;;;;18.36;30.77;101778.44;5065839;28;20049;-38
2022/03/11 02:34:06;;;;;;;6.78;4.50;;;;;;;18.35;30.94;101770.53;5066705;28;20047;-38
2022/03/11 02:36:32;;;;;;;6.25;4.20;;;;;;;18.35;31.17;101770.53;5070289;28;20075;-38
2022/03/11 02:38:59;;;;;;;6.65;4.10;;;;;;;18.37;31.46;101764.06;5066208;28;20124;-37
2022/03/11 02:41:26;;;;;;;7.10;4.10;;;;;;;18.34;31.04;101767.00;5067244;28;20046;-37
2022/03/11 02:43:53;;;;;;;7.13;4.43;;;;;;;18.31;31.08;101759.22;5065889;28;20060;-38
2022/03/11 02:46:20;;;;;;;7.25;4.47;;;;;;;18.30;30.96;101752.16;5066754;28;20876;-38
2022/03/11 02:48:46;;;;;;;6.80;4.30;;;;;;;18.30;31.21;101756.69;5064472;28;20446;-38
2022/03/11 02:51:13;;;;;;;6.85;4.38;;;;;;;18.27;31.17;101749.72;5068506;28;20399;-37
2022/03/11 02:53:40;;;;;;;6.80;4.53;;;;;;;18.27;31.08;101744.38;5065502;28;20436;-37
2022/03/11 02:56:10;;;;;;;6.63;4.55;;;;;;;18.27;30.93;101747.03;5063641;28;20715;-38
2022/03/11 02:58:37;;;;;;;6.15;4.63;;;;;;;18.28;31.17;101742.53;5067306;28;20072;-37
2022/03/11 03:01:04;;;;;;;6.13;4.30;;;;;;;18.26;30.92;101750.72;5067161;28;20378;-37
2022/03/11 03:03:31;;;;;;;6.60;4.15;;;;;;;18.26;30.95;101748.03;5063712;28;20047;-37
2022/03/11 03:05:58;;;;;;;8.05;4.60;;;;;;;18.28;30.89;101745.22;5063655;28;20052;-39
2022/03/11 03:08:24;;;;;;;10.63;5.18;;;;;;;18.24;30.75;101742.78;5063263;28;20076;-38
2022/03/11 03:10:51;;;;;;;6.72;4.30;;;;;;;18.25;31.01;101738.25;5062611;28;20329;-38
2022/03/11 03:13:18;;;;;;;6.93;4.85;;;;;;;18.24;30.88;101732.06;5068167;28;20135;-38
2022/03/11 03:15:45;;;;;;;7.22;4.70;;;;;;;18.22;31.03;101728.66;5063492;28;20446;-38
2022/03/11 03:18:11;;;;;;;9.85;4.40;;;;;;;18.22;30.77;101734.03;5065308;28;20059;-38
2022/03/11 03:20:38;;;;;;;7.65;4.82;;;;;;;18.22;30.52;101739.41;5065559;28;20431;-38
2022/03/11 03:23:05;;;;;;;7.95;5.07;;;;;;;18.21;30.58;101729.66;5064729;28;20082;-39
2022/03/11 03:25:31;;;;;;;7.57;5.22;;;;;;;18.23;30.14;101730.34;5066263;28;20040;-38
2022/03/11 03:27:58;;;;;;;7.85;5.30;;;;;;;18.20;30.60;101727.94;5065140;28;20067;-38
2022/03/11 03:30:25;;;;;;;7.88;5.10;;;;;;;18.18;30.32;101732.59;5062835;28;20744;-37
2022/03/11 03:32:51;;;;;;;5.97;4.65;;;;;;;18.17;30.62;101722.84;5065185;28;20150;-38
2022/03/11 03:35:18;;;;;;;6.97;4.53;;;;;;;18.17;30.71;101732.72;5066391;28;20044;-38
2022/03/11 03:37:44;;;;;;;6.97;4.85;;;;;;;18.14;30.66;101727.63;5067246;28;20045;-38
2022/03/11 03:40:11;;;;;;;9.13;4.68;;;;;;;18.13;30.83;101724.09;5066856;28;20119;-39
2022/03/11 03:42:38;;;;;;;9.38;4.65;;;;;;;18.11;30.81;101723.38;5065373;28;20110;-38
2022/03/11 03:45:06;;;;;;;7.95;5.10;;;;;;;18.09;30.63;101725.34;5067093;28;20079;-38
2022/03/11 03:47:33;;;;;;;6.43;4.72;;;;;;;18.09;30.38;101728.03;5067779;28;20308;-38
2022/03/11 03:49:59;;;;;;;8.07;4.88;;;;;;;18.10;30.67;101723.53;5065911;28;20036;-38
2022/03/11 03:52:27;;;;;;;6.50;4.85;;;;;;;18.08;30.65;101722.78;5067715;28;20049;-39
2022/03/11 03:54:55;;;;;;;7.78;5.05;;;;;;;18.09;30.65;101722.69;5068169;28;20052;-38
2022/03/11 03:57:22;;;;;;;7.25;4.72;;;;;;;18.06;30.52;101727.44;5071270;28;20143;-39
2022/03/11 03:59:48;;;;;;;8.73;5.00;;;;;;;18.05;30.51;101718.56;5069153;28;20043;-38
2022/03/11 04:02:15;;;;;;;8.65;5.13;;;;;;;18.04;30.53;101715.97;5066845;28;20048;-38
2022/03/11 04:04:42;;;;;;;7.05;4.90;;;;;;;18.03;30.32;101714.28;5067488;28;20425;-38
2022/03/11 04:07:08;;;;;;;6.88;4.43;;;;;;;18.02;30.56;101709.91;5069865;28;20047;-38
2022/03/11 04:09:35;;;;;;;7.60;5.22;;;;;;;17.99;30.80;101711.88;5065958;28;20297;-38
2022/03/11 04:12:03;;;;;;;6.85;4.57;;;;;;;17.98;30.74;101706.66;5071805;28;20123;-38
2022/03/11 04:14:29;;;;;;;7.32;5.20;;;;;;;17.98;30.29;101709.34;5068211;28;20064;-38
2022/03/11 04:16:56;;;;;;;6.82;4.30;;;;;;;17.96;30.55;101704.06;5066497;28;20135;-37
2022/03/11 04:19:23;;;;;;;6.63;4.70;;;;;;;17.96;30.73;101698.72;5072077;28;20331;-38
2022/03/11 04:21:49;;;;;;;7.40;5.10;;;;;;;17.97;30.03;101696.91;5068319;28;20183;-37
2022/03/11 04:24:17;;;;;;;8.25;4.55;;;;;;;17.94;30.15;101698.00;5070626;28;20086;-38
2022/03/11 04:26:45;;;;;;;6.25;4.25;;;;;;;17.93;30.57;101696.31;5069370;28;20141;-37
2022/03/11 04:29:12;;;;;;;8.60;4.57;;;;;;;17.90;30.32;101688.53;5068024;28;20037;-38
2022/03/11 04:31:40;;;;;;;7.60;4.93;;;;;;;17.89;30.14;101694.00;5067298;28;20048;-38
2022/03/11 04:34:07;;;;;;;7.82;5.28;;;;;;;17.88;30.41;101698.53;5065977;28;20044;-38
2022/03/11 04:36:35;;;;;;;8.75;5.15;;;;;;;17.89;30.47;101694.00;5070809;28;20123;-38
2022/03/11 04:39:02;;;;;;;6.78;4.55;;;;;;;17.86;30.39;101694.28;5070480;28;20051;-39
2022/03/11 04:41:29;;;;;;;6.20;4.57;;;;;;;17.87;30.22;101695.97;5069237;28;20039;-39
2022/03/11 04:43:55;;;;;;;7.28;4.63;;;;;;;17.85;30.65;101693.44;5067669;28;20079;-38
2022/03/11 04:46:22;;;;;;;9.13;4.85;;;;;;;17.88;30.78;101682.44;5068467;28;20093;-38
2022/03/11 04:48:49;;;;;;;7.53;4.68;;;;;;;17.93;30.61;101676.66;5068047;28;20036;-38
2022/03/11 04:51:16;;;;;;;7.97;4.65;;;;;;;17.99;30.77;101690.41;5068901;28;20131;-38
2022/03/11 04:53:43;;;;;;;9.70;4.25;;;;;;;18.05;30.44;101686.38;5072058;28;20075;-38
2022/03/11 04:56:09;;;;;;;6.85;4.68;;;;;;;18.09;30.40;101679.75;5069661;28;20069;-38
2022/03/11 04:58:36;;;;;;;9.05;4.28;;;;;;;18.16;30.49;101680.03;5069526;28;20322;-38
2022/03/11 05:01:03;;;;;;;7.10;4.40;;;;;;;18.19;30.78;101677.94;5069031;28;20075;-38
2022/03/11 05:03:29;;;;;;;6.38;4.00;;;;;;;18.26;30.62;101675.59;5069204;28;20051;-39
2022/03/11 05:05:56;;;;;;;7.03;4.28;;;;;;;18.33;30.55;101670.50;5065226;28;20050;-37
2022/03/11 05:08:23;;;;;;;8.70;4.13;;;;;;;18.38;30.55;101668.28;5068201;28;20130;-38
2022/03/11 05:10:49;;;;;;;5.50;3.88;;;;;;;18.44;30.55;101667.72;5068965;28;20123;-38
2022/03/11 05:13:16;;;;;;;7.53;4.45;;;;;;;18.49;30.34;101673.53;5067274;28;20135;-38
2022/03/11 05:15:43;;;;;;;6.15;4.07;;;;;;;18.54;30.79;101662.41;5065852;28;20040;-38
2022/03/11 05:18:11;;;;;;;8.77;4.03;;;;;;;18.58;30.04;101659.31;5065576;28;20170;-38
2022/03/11 05:20:38;;;;;;;6.82;4.10;;;;;;;18.61;30.50;101666.22;5067952;28;20086;-38
2022/03/11 05:23:05;;;;;;;8.23;4.75;;;;;;;18.62;30.16;101660.72;5066297;28;20048;-38
2022/03/11 05:25:31;;;;;;;6.47;4.40;;;;;;;18.65;29.88;101664.97;5067904;28;20099;-38
2022/03/11 05:27:58;;;;;;;6.53;4.35;;;;;;;18.65;30.09;101655.09;5063835;28;20072;-38
2022/03/11 05:30:25;;;;;;;7.97;4.07;;;;;;;18.64;29.62;101668.63;5062599;28;20073;-38
2022/03/11 05:32:51;;;;;;;5.70;4.13;;;;;;;18.63;30.08;101665.09;5062721;28;20059;-38
2022/03/11 05:35:18;;;;;;;6.68;4.30;;;;;;;18.59;29.72;101661.00;5062376;28;20044;-38
2022/03/11 05:37:46;;;;;;;6.85;4.43;;;;;;;18.56;29.43;101660.41;5061598;28;20063;-38
2022/03/11 05:40:13;;;;;;;7.10;4.60;;;;;;;18.53;29.85;101648.09;5067510;28;20159;-38
2022/03/11 05:42:39;;;;;;;8.52;4.70;;;;;;;18.51;29.91;101639.34;5063475;28;20131;-37
2022/03/11 05:45:07;;;;;;;6.40;4.32;;;;;;;18.44;29.60;101646.25;5063978;28;20084;-38
2022/03/11 05:47:34;;;;;;;6.28;4.30;;;;;;;18.37;29.56;101634.34;5063977;28;20036;-37
2022/03/11 05:50:01;;;;;;;7.63;4.72;;;;;;;18.31;29.62;101648.34;5062178;28;20167;-37
2022/03/11 05:52:27;;;;;;;7.45;4.90;;;;;;;18.24;29.74;101638.13;5062851;28;20125;-37
2022/03/11 05:54:54;;;;;;;7.03;4.65;;;;;;;18.19;29.62;101648.44;5063279;28;20135;-37
2022/03/11 05:57:20;;;;;;;8.13;4.60;;;;;;;18.15;29.96;101647.00;5062878;28;20080;-37
2022/03/11 05:59:47;;;;;;;7.30;4.55;;;;;;;18.11;30.03;101645.56;5063118;28;20548;-37
2022/03/11 06:02:14;;;;;;;6.03;4.20;;;;;;;18.09;29.71;101646.69;5064092;28;20084;-38
2022/03/11 06:04:41;;;;;;;8.23;4.90;;;;;;;18.06;29.92;101637.09;5065126;28;20049;-37
2022/03/11 06:07:08;;;;;;;5.93;4.28;;;;;;;18.03;29.85;101645.41;5064997;28;20127;-39
2022/03/11 06:09:34;;;;;;;6.97;4.72;;;;;;;17.99;29.89;101652.00;5064318;28;20051;-39
2022/03/11 06:12:01;;;;;;;6.75;4.10;;;;;;;17.97;30.20;101643.25;5063997;28;20131;-38
2022/03/11 06:14:28;;;;;;;6.88;4.38;;;;;;;17.93;30.03;101641.81;5062803;28;20127;-39
2022/03/11 06:16:54;;;;;;;8.98;4.38;;;;;;;17.90;30.04;101644.78;5061065;28;20052;-39
2022/03/11 06:19:22;;;;;;;8.90;4.82;;;;;;;17.89;29.93;101643.94;5062850;28;20069;-37
2022/03/11 06:21:48;;;;;;;7.55;4.63;;;;;;;17.88;30.21;101631.47;5063273;28;20178;-37
2022/03/11 06:24:16;;;;;;;6.57;4.60;;;;;;;17.88;29.71;101636.00;5067057;28;20048;-37
2022/03/11 06:26:43;;;;;;;7.40;4.85;;;;;;;17.87;29.61;101636.97;5066865;28;20135;-37
2022/03/11 06:29:10;;;;;;;8.30;5.15;;;;;;;17.87;29.87;101643.19;5063427;28;20417;-37
2022/03/11 06:31:37;;;;;;;6.40;4.10;;;;;;;17.88;30.37;101644.03;5063079;28;20132;-37
2022/03/11 06:34:04;;;;;;;7.65;4.85;;;;;;;17.88;30.29;101644.88;5063418;28;20037;-37
2022/03/11 06:36:31;;;;;;;8.98;5.00;;;;;;;17.87;30.04;101643.19;5060228;28;20079;-37
2022/03/11 06:38:58;;;;;;;7.28;4.90;;;;;;;17.88;29.85;101641.34;5059166;28;20123;-39
2022/03/11 06:41:24;;;;;;;9.80;4.80;;;;;;;17.88;29.78;101646.72;5062033;28;20047;-36
2022/03/11 06:43:56;;;;;;;11.75;5.13;;;;;;;17.88;30.07;101644.03;5066739;28;20044;-38
2022/03/11 06:46:23;;;;;;;7.15;4.70;;;;;;;17.89;29.96;101641.25;5062300;28;20386;-39
2022/03/11 06:48:50;;;;;;;7.88;4.95;;;;;;;17.88;30.08;101646.72;5064203;28;20049;-38
2022/03/11 06:51:16;;;;;;;6.63;4.55;;;;;;;17.87;29.74;101648.56;5065861;28;20159;-38
2022/03/11 06:53:43;;;;;;;6.80;4.97;;;;;;;17.85;29.95;101639.81;5062438;28;20078;-38
2022/03/11 06:56:10;;;;;;;8.13;4.47;;;;;;;17.84;30.12;101638.09;5062281;28;20076;-39
2022/03/11 06:58:36;;;;;;;9.88;4.72;;;;;;;17.83;29.76;101647.13;5065354;28;20095;-38
2022/03/11 07:01:03;;;;;;;7.07;4.63;;;;;;;17.82;29.83;101633.88;5060775;28;20059;-38
2022/03/11 07:03:30;;;;;;;8.80;4.78;;;;;;;17.81;29.66;101634.81;5060752;28;20052;-39
2022/03/11 07:05:57;;;;;;;8.10;4.80;;;;;;;17.79;30.01;101640.34;5061606;28;20102;-39
2022/03/11 07:08:24;;;;;;;8.65;4.47;;;;;;;17.79;29.47;101634.13;5065244;28;20116;-38
2022/03/11 07:10:51;;;;;;;9.18;5.03;;;;;;;17.79;29.81;101629.59;5063804;28;20088;-38
2022/03/11 07:13:17;;;;;;;7.72;4.60;;;;;;;17.80;29.86;101631.28;5062252;28;20119;-38
2022/03/11 07:15:45;;;;;;;9.43;5.50;;;;;;;17.78;30.08;101627.06;5059883;28;20132;-38
2022/03/11 07:18:12;;;;;;;7.60;4.45;;;;;;;17.78;29.65;101629.75;5058858;28;20060;-39
2022/03/11 07:20:39;;;;;;;8.30;5.18;;;;;;;17.78;30.17;101624.38;5059609;28;20084;-38
2022/03/11 07:23:24;;;;;;;7.88;4.72;;;;;;;17.78;29.79;101627.91;5059971;28;20119;-38
2022/03/11 07:25:51;;;;;;;9.20;4.95;;;;;;;17.78;30.16;101627.91;5060737;28;20389;-38
2022/03/11 07:28:19;;;;;;;8.32;4.60;;;;;;;17.75;30.08;101623.66;5060456;28;20151;-38
2022/03/11 07:30:46;;;;;;;9.10;4.68;;;;;;;17.77;29.58;101626.22;5062714;28;20131;-38
2022/03/11 07:33:13;;;;;;;6.30;4.18;;;;;;;17.76;29.86;101622.66;5059277;28;20114;-38
2022/03/11 07:35:39;;;;;;;8.85;4.70;;;;;;;17.76;29.98;101622.66;5061425;28;20121;-38
2022/03/11 07:38:06;;;;;;;7.35;4.45;;;;;;;17.76;30.10;101627.19;5056767;28;20128;-38
2022/03/11 07:40:32;;;;;;;8.70;4.55;;;;;;;17.78;29.69;101624.38;5060029;28;20155;-38
2022/03/11 07:42:59;;;;;;;10.60;5.30;;;;;;;17.80;30.05;101625.09;5061196;28;20384;-38
2022/03/11 07:45:26;;;;;;;6.90;4.85;;;;;;;17.76;29.68;101616.44;5063497;28;20053;-39
2022/03/11 07:47:53;;;;;;;10.85;4.72;;;;;;;17.79;29.80;101623.41;5061329;28;20135;-39
2022/03/11 07:50:20;;;;;;;7.30;4.13;;;;;;;17.80;29.86;101617.03;5060245;28;20032;-39
2022/03/11 07:52:46;;;;;;;7.50;5.00;;;;;;;17.83;29.76;101614.09;5061230;28;20076;-39
2022/03/11 07:55:13;;;;;;;12.57;5.32;;;;;;;17.85;29.79;101606.75;5061299;28;20160;-39
2022/03/11 07:57:39;;;;;;;8.40;5.25;;;;;;;17.85;29.73;101607.63;5061469;28;20659;-39
2022/03/11 08:00:08;;;;;;;8.25;4.82;;;;;;;17.86;29.73;101606.63;5063004;28;20370;-39
2022/03/11 08:02:35;;;;;;;7.13;4.72;;;;;;;17.88;30.04;101609.19;5059972;28;20067;-39
2022/03/11 08:05:03;;;;;;;8.57;5.50;;;;;;;17.91;29.98;101606.25;5060657;28;20387;-38
2022/03/11 08:07:30;;;;;;;9.20;4.90;;;;;;;17.94;29.55;101605.97;5063271;28;20048;-39
2022/03/11 08:09:57;;;;;;;9.55;5.13;;;;;;;17.98;29.52;101607.41;5063187;28;20116;-39
2022/03/11 08:12:25;;;;;;;7.80;5.22;;;;;;;18.02;29.48;101600.78;5058205;28;20120;-40
2022/03/11 08:14:51;;;;;;;9.70;6.05;;;;;;;18.05;29.89;101605.88;5062170;28;20140;-38
2022/03/11 08:17:18;;;;;;;9.02;5.00;;;;;;;18.08;29.60;101600.22;5062394;28;20155;-37
2022/03/11 08:19:45;;;;;;;8.10;5.35;;;;;;;18.12;29.62;101604.34;5061638;28;20687;-37
2022/03/11 08:22:12;;;;;;;8.90;5.68;;;;;;;18.17;29.43;101599.44;5062182;28;20189;-38
2022/03/11 08:24:39;;;;;;;9.27;4.97;;;;;;;18.21;29.27;101597.28;5059350;28;20041;-37
2022/03/11 08:27:07;;;;;;;8.85;5.63;;;;;;;18.25;29.39;101588.88;5064213;28;20574;-37
2022/03/11 08:29:34;;;;;;;11.65;5.40;;;;;;;18.30;29.48;101584.91;5066393;28;20064;-37
2022/03/11 08:32:03;;;;;;;9.82;5.53;;;;;;;18.34;29.91;101586.34;5062308;28;20055;-37
2022/03/11 08:34:30;;;;;;;7.80;4.70;;;;;;;18.39;30.01;101584.09;5063008;28;20045;-38
2022/03/11 08:37:17;;;;;;;9.48;5.85;;;;;;;18.44;29.67;101577.31;5065310;28;20056;-37
2022/03/11 08:39:43;;;;;;;10.25;5.55;;;;;;;18.48;29.72;101570.69;5065076;28;20135;-37
2022/03/11 08:42:10;;;;;;;11.02;5.93;;;;;;;18.52;29.23;101571.25;5063934;28;20825;-38
2022/03/11 08:44:37;;;;;;;10.20;6.13;;;;;;;18.56;29.14;101556.56;5064502;28;20653;-37
2022/03/11 08:47:03;;;;;;;7.60;4.78;;;;;;;18.62;29.61;101558.69;5064542;28;20421;-37
2022/03/11 08:49:30;;;;;;;7.95;4.82;;;;;;;18.67;29.09;101563.66;5064477;28;20068;-37
2022/03/11 08:51:57;;;;;;;12.73;5.47;;;;;;;18.72;29.55;101569.47;5064785;28;20139;-37
2022/03/11 08:54:23;;;;;;;11.93;6.35;;;;;;;18.74;29.33;101557.59;5067065;28;20136;-37
2022/03/11 08:56:52;;;;;;;9.65;5.75;;;;;;;18.79;28.87;101559.03;5067794;28;20728;-37
2022/03/11 08:59:19;;;;;;;13.10;6.10;;;;;;;18.83;28.75;101557.75;5064555;28;20086;-37
2022/03/11 09:01:46;;;;;;;10.63;6.05;;;;;;;18.87;29.23;101562.69;5063800;28;20383;-37
2022/03/11 09:04:13;;;;;;;8.68;5.18;;;;;;;18.91;28.86;101557.88;5066188;28;20415;-37
2022/03/11 09:06:40;;;;;;;13.18;5.95;;;;;;;18.94;29.12;101566.50;5067408;28;20064;-37
2022/03/11 09:09:08;;;;;;;10.90;5.82;;;;;;;18.98;28.99;101561.72;5060967;28;20067;-37
2022/03/11 09:11:35;;;;;;;9.50;5.45;;;;;;;19.00;29.33;101548.97;5067180;28;20179;-37
2022/03/11 09:14:02;;;;;;;11.45;6.05;;;;;;;19.05;29.40;101561.97;5062394;28;20048;-37
2022/03/11 09:16:28;;;;;;;9.93;5.75;;;;;;;19.07;29.33;101552.78;5064489;28;20045;-37
2022/03/11 09:18:55;;;;;;;8.75;5.43;;;;;;;19.11;29.56;101542.59;5066413;28;20044;-37
2022/03/11 09:21:22;;;;;;;14.07;5.75;;;;;;;19.14;29.89;101545.84;5066031;28;20120;-37
2022/03/11 09:23:49;;;;;;;9.27;5.65;;;;;;;19.18;29.92;101538.34;5063081;28;20083;-37
2022/03/11 09:26:15;;;;;;;12.73;6.00;;;;;;;19.20;30.01;101534.50;5064471;28;20091;-37
2022/03/11 09:28:42;;;;;;;10.82;5.07;;;;;;;19.26;29.78;101535.78;5063653;28;20044;-36
2022/03/11 09:31:09;;;;;;;9.05;5.32;;;;;;;19.30;29.52;101533.66;5064826;28;20060;-36
2022/03/11 09:33:39;;;;;;;11.85;5.60;;;;;;;19.33;29.96;101533.34;5063509;28;20099;-37
2022/03/11 09:36:07;;;;;;;9.25;5.65;;;;;;;19.38;29.96;101537.31;5060757;28;20149;-37
2022/03/11 09:38:36;;;;;;;11.52;5.50;;;;;;;19.43;29.98;101531.50;5060582;28;20075;-37
2022/03/11 09:41:04;;;;;;;8.07;4.90;;;;;;;19.47;30.33;101527.50;5062931;28;20087;-37
2022/03/11 09:43:32;;;;;;;10.90;5.78;;;;;;;19.53;30.40;101521.53;5064665;28;20083;-37
2022/03/11 09:45:59;;;;;;;11.07;5.95;;;;;;;19.60;30.68;101522.66;5063918;28;20139;-37
2022/03/11 09:48:26;;;;;;;9.70;4.90;;;;;;;19.66;30.36;101524.78;5064378;28;20059;-37
2022/03/11 09:50:52;;;;;;;8.88;5.03;;;;;;;19.72;30.53;101508.06;5066600;28;20040;-37
2022/03/11 09:53:19;;;;;;;8.88;4.93;;;;;;;19.79;30.63;101512.84;5061284;28;20048;-37
2022/03/11 09:55:46;;;;;;;10.82;5.55;;;;;;;19.85;30.29;101513.09;5064511;28;20127;-37
2022/03/11 09:58:12;;;;;;;9.02;5.55;;;;;;;19.91;30.96;101500.91;5056072;28;20459;-38
2022/03/11 10:00:40;;;;;;;8.55;5.28;;;;;;;19.99;30.48;101506.38;5065783;28;20064;-37
2022/03/11 10:03:07;;;;;;;10.20;5.63;;;;;;;20.05;30.61;101496.84;5062986;28;20056;-37
2022/03/11 10:05:46;;;;;;;9.10;5.57;;;;;;;20.11;30.68;101490.88;5064064;28;20056;-37
2022/03/11 10:08:13;;;;;;;10.13;5.68;;;;;;;20.16;30.89;101486.72;5061473;28;20076;-37
2022/03/11 10:10:41;;;;;;;8.82;5.32;;;;;;;20.22;30.63;101479.84;5066550;28;20127;-37
2022/03/11 10:13:09;;;;;;;10.02;5.57;;;;;;;20.28;30.99;101473.88;5068096;28;20057;-38
2022/03/11 10:15:38;;;;;;;10.10;5.63;;;;;;;20.34;30.97;101469.72;5064836;28;20044;-37
2022/03/11 10:18:09;;;;;;;11.32;5.00;;;;;;;20.39;31.31;101472.81;5067344;28;20048;-37
2022/03/11 10:20:36;;;;;;;11.63;5.63;;;;;;;20.44;31.46;101470.50;5065387;28;20062;-37
2022/03/11 10:23:08;;;;;;;10.60;5.35;;;;;;;20.49;31.04;101476.28;5065613;28;20369;-37
2022/03/11 10:25:35;;;;;;;14.07;5.22;;;;;;;20.55;31.20;101464.06;5064299;28;20048;-37
2022/03/11 10:28:10;;;;;;;9.77;5.60;;;;;;;20.60;31.02;101461.75;5065667;28;20156;-37
2022/03/11 10:30:42;;;;;;;8.15;5.32;;;;;;;20.64;31.01;101469.34;5067561;28;20036;-37
2022/03/11 10:33:11;;;;;;;8.25;5.13;;;;;;;20.68;30.82;101459.97;5064554;28;20048;-37
2022/03/11 10:35:42;;;;;;;9.02;5.07;;;;;;;20.74;31.39;101452.25;5064656;28;20094;-37
2022/03/11 10:38:13;;;;;;;10.57;5.85;;;;;;;20.77;31.26;101458.16;5060928;28;20503;-37
2022/03/11 10:40:41;;;;;;;12.13;5.57;;;;;;;20.81;30.85;101447.94;5063375;28;20060;-37
2022/03/11 10:43:28;;;;;;;8.93;5.18;;;;;;;20.84;30.50;101453.00;5062642;28;20136;-37
2022/03/11 10:46:06;;;;;;;8.20;5.53;;;;;;;20.88;30.74;101449.00;5057590;28;20040;-37
2022/03/11 10:48:46;;;;;;;11.35;5.45;;;;;;;20.93;30.96;101452.06;5063659;28;20061;-37
2022/03/11 10:51:24;;;;;;;9.13;5.45;;;;;;;20.95;30.68;101447.38;5062069;28;20044;-37
2022/03/11 10:53:50;;;;;;;9.48;4.97;;;;;;;20.98;31.23;101441.63;5065974;28;20068;-37
2022/03/11 10:56:35;;;;;;;8.52;5.28;;;;;;;21.00;31.46;101446.88;5062978;28;20123;-37
2022/03/11 10:59:23;;;;;;;8.68;4.88;;;;;;;21.03;30.99;101436.66;5059444;28;20524;-38
2022/03/11 11:01:52;;;;;;;9.80;4.60;;;;;;;21.04;30.96;101435.63;5063546;28;20048;-38
2022/03/11 11:04:20;;;;;;;8.85;4.60;;;;;;;21.05;31.46;101437.31;5062591;28;20067;-39
2022/03/11 11:06:47;;;;;;;9.68;4.85;;;;;;;21.06;31.49;101430.91;5060937;28;20084;-38
2022/03/11 11:09:17;;;;;;;10.77;5.00;;;;;;;21.06;31.38;101436.31;5067126;28;20072;-38
2022/03/11 11:11:44;;;;;;;9.73;5.38;;;;;;;21.07;31.59;101432.63;5064723;28;20534;-38
2022/03/11 11:14:11;;;;;;;7.53;4.50;;;;;;;21.08;31.40;101438.84;5063622;28;20049;-38
2022/03/11 11:16:43;;;;;;;9.40;4.82;;;;;;;21.08;31.28;101425.38;5060637;28;21056;-37
2022/03/11 11:19:16;;;;;;;8.65;5.18;;;;;;;21.08;31.63;101430.78;5062305;28;20446;-38
2022/03/11 11:21:45;;;;;;;10.00;5.10;;;;;;;21.07;31.21;101416.44;5061314;28;20155;-38
2022/03/11 11:24:23;;;;;;;9.48;5.20;;;;;;;21.08;31.85;101420.00;5063421;28;20583;-38
2022/03/11 11:26:53;;;;;;;9.65;5.57;;;;;;;21.08;31.11;101415.44;5062545;28;20175;-38